Time;durP1;ratioP1;P1;durP2;ratioP2;P2;SDS_P1;SDS_P2;PMS_P1;PMS_P2;Temp;Humidity;BMP_temperature;BMP_pressure;BME280_temperature;BME280_humidity;BME280_pressure;Samples;Min_cycle;Max_cycle;Signal;HPM_P1;HPM_P2
2023/04/19 00:02:10;;;;;;;4.33;3.90;;;13.10;89.40;;;;;;5008084;28;20472;-73
2023/04/19 00:04:39;;;;;;;3.83;3.43;;;13.10;89.20;;;;;;5007653;28;20445;-74
2023/04/19 00:07:07;;;;;;;4.53;3.60;;;13.10;89.30;;;;;;5016684;28;20465;-74
2023/04/19 00:09:36;;;;;;;3.63;3.33;;;13.10;89.30;;;;;;5018816;28;20529;-73
2023/04/19 00:12:04;;;;;;;4.33;3.93;;;13.10;89.30;;;;;;5011493;28;20472;-74
2023/04/19 00:14:32;;;;;;;4.27;3.40;;;13.10;89.40;;;;;;5023236;28;20982;-74
2023/04/19 00:17:01;;;;;;;3.93;3.53;;;13.10;89.40;;;;;;5017891;28;20476;-74
2023/04/19 00:19:31;;;;;;;3.70;3.30;;;13.10;89.50;;;;;;5023000;28;21032;-74
2023/04/19 00:21:59;;;;;;;3.20;2.90;;;13.10;89.30;;;;;;5022991;28;20508;-74
2023/04/19 00:24:29;;;;;;;4.00;3.50;;;13.10;89.40;;;;;;5024005;28;20449;-74
2023/04/19 00:26:57;;;;;;;3.60;3.30;;;13.10;89.50;;;;;;5006412;28;20468;-73
2023/04/19 00:29:26;;;;;;;3.37;3.00;;;13.10;89.40;;;;;;5007663;28;20788;-74
2023/04/19 00:31:54;;;;;;;4.00;3.60;;;13.10;89.50;;;;;;5023439;28;20433;-74
2023/04/19 00:34:24;;;;;;;3.53;3.20;;;13.10;89.40;;;;;;5023593;28;20505;-74
2023/04/19 00:36:57;;;;;;;4.10;3.70;;;13.10;89.50;;;;;;4999268;28;20528;-73
2023/04/19 00:39:26;;;;;;;3.83;3.50;;;13.10;89.50;;;;;;5021019;28;20537;-75
2023/04/19 00:41:56;;;;;;;3.73;3.00;;;13.10;89.50;;;;;;5006559;28;20493;-73
2023/04/19 00:44:24;;;;;;;4.00;3.60;;;13.10;89.50;;;;;;5022127;28;20456;-73
2023/04/19 00:46:55;;;;;;;4.00;3.13;;;13.10;89.60;;;;;;4995830;28;20473;-73
2023/04/19 00:49:25;;;;;;;3.60;2.70;;;13.10;90.00;;;;;;5008568;28;20449;-73
2023/04/19 00:51:54;;;;;;;3.40;3.00;;;13.10;89.40;;;;;;5018768;28;20474;-73
2023/04/19 00:54:24;;;;;;;3.60;3.10;;;13.10;89.30;;;;;;5020506;28;20541;-74
2023/04/19 00:56:52;;;;;;;4.00;3.63;;;13.10;89.30;;;;;;5014773;28;20473;-74
2023/04/19 00:59:22;;;;;;;3.93;3.53;;;13.10;89.30;;;;;;5003764;28;20872;-74
2023/04/19 01:01:51;;;;;;;3.90;2.90;;;13.10;89.60;;;;;;5022584;28;20472;-74
2023/04/19 01:04:21;;;;;;;3.20;2.90;;;13.10;89.60;;;;;;5023108;28;20458;-73
2023/04/19 01:06:51;;;;;;;5.87;4.17;;;13.10;89.50;;;;;;5013791;28;20499;-73
2023/04/19 01:09:19;;;;;;;5.60;3.70;;;13.10;89.70;;;;;;5022604;28;20485;-73
2023/04/19 01:11:50;;;;;;;3.33;3.03;;;13.10;89.60;;;;;;5006247;28;20476;-74
2023/04/19 01:14:19;;;;;;;3.43;3.13;;;13.10;89.50;;;;;;5016688;28;20501;-73
2023/04/19 01:16:47;;;;;;;4.10;3.30;;;13.10;89.50;;;;;;5021850;28;20484;-73
2023/04/19 01:19:17;;;;;;;3.40;3.10;;;13.10;89.50;;;;;;5018604;28;20454;-73
2023/04/19 01:21:45;;;;;;;3.60;3.27;;;13.10;89.60;;;;;;5021299;28;20918;-73
2023/04/19 01:24:15;;;;;;;3.63;3.03;;;13.10;89.70;;;;;;5015021;28;20429;-74
2023/04/19 01:26:44;;;;;;;3.93;3.47;;;13.10;89.70;;;;;;5006804;28;20555;-74
2023/04/19 01:29:12;;;;;;;3.90;3.50;;;13.10;89.70;;;;;;4997580;28;20453;-73
2023/04/19 01:31:40;;;;;;;3.37;3.07;;;13.10;89.50;;;;;;5020546;28;20472;-73
2023/04/19 01:34:09;;;;;;;3.50;3.20;;;13.10;89.70;;;;;;5022316;28;20440;-74
2023/04/19 01:36:38;;;;;;;3.30;3.00;;;13.10;90.00;;;;;;5021957;28;21372;-74
2023/04/19 01:39:07;;;;;;;3.73;3.43;;;13.10;89.80;;;;;;5007139;28;20952;-74
2023/04/19 01:41:40;;;;;;;3.53;2.77;;;13.10;89.90;;;;;;5013577;28;21056;-73
2023/04/19 01:44:10;;;;;;;3.07;2.80;;;13.10;89.90;;;;;;5007559;28;20448;-73
2023/04/19 01:46:41;;;;;;;3.97;3.53;;;13.10;89.80;;;;;;5003926;28;21036;-75
2023/04/19 01:49:10;;;;;;;3.30;3.00;;;13.10;89.80;;;;;;5010755;28;20450;-73
2023/04/19 01:51:39;;;;;;;3.97;3.60;;;13.10;89.90;;;;;;5027669;28;20557;-74
2023/04/19 01:54:07;;;;;;;3.90;3.50;;;13.10;90.00;;;;;;5024112;28;20445;-73
2023/04/19 01:56:35;;;;;;;5.10;4.40;;;13.00;89.80;;;;;;5020941;28;20496;-73
2023/04/19 01:59:05;;;;;;;3.23;2.93;;;13.10;89.50;;;;;;5022517;28;20945;-73
2023/04/19 02:01:34;;;;;;;4.20;3.77;;;13.10;89.90;;;;;;5007726;28;20808;-73
2023/04/19 02:04:02;;;;;;;4.27;3.70;;;13.10;89.90;;;;;;5007204;28;20543;-74
2023/04/19 02:06:31;;;;;;;3.80;3.23;;;13.10;89.80;;;;;;5018873;28;20973;-74
2023/04/19 02:09:04;;;;;;;3.53;3.23;;;13.10;89.80;;;;;;4997351;28;20501;-73
2023/04/19 02:11:33;;;;;;;5.37;3.77;;;13.00;89.70;;;;;;5016038;28;20999;-74
2023/04/19 02:14:01;;;;;;;4.53;3.47;;;13.00;89.50;;;;;;5002996;28;20444;-75
2023/04/19 02:16:32;;;;;;;3.43;3.13;;;13.00;89.50;;;;;;5007092;28;20824;-74
2023/04/19 02:19:03;;;;;;;6.07;4.53;;;13.00;89.70;;;;;;5014474;28;20465;-74
2023/04/19 02:21:33;;;;;;;5.90;3.73;;;13.00;89.10;;;;;;5005520;28;20926;-74
2023/04/19 02:24:02;;;;;;;5.57;4.83;;;13.00;89.30;;;;;;5012260;28;20440;-73
2023/04/19 02:26:31;;;;;;;4.77;4.30;;;13.00;89.40;;;;;;5015683;28;20505;-75
2023/04/19 02:29:00;;;;;;;7.43;4.70;;;13.00;89.30;;;;;;5012278;28;20425;-73
2023/04/19 02:31:28;;;;;;;5.27;4.73;;;13.00;89.10;;;;;;5020959;28;20491;-74
2023/04/19 02:33:58;;;;;;;5.10;4.60;;;13.00;89.10;;;;;;5024602;28;20482;-73
2023/04/19 02:36:27;;;;;;;5.40;4.90;;;13.00;89.20;;;;;;5019820;28;20476;-73
2023/04/19 02:38:55;;;;;;;5.33;4.83;;;13.00;89.10;;;;;;5024958;28;20445;-74
2023/04/19 02:41:23;;;;;;;5.47;4.67;;;13.00;89.10;;;;;;5009190;28;20476;-74
2023/04/19 02:43:52;;;;;;;5.77;4.40;;;13.00;89.20;;;;;;5007396;28;20521;-73
2023/04/19 02:46:20;;;;;;;4.57;4.10;;;13.00;89.20;;;;;;5023353;28;20446;-72
2023/04/19 02:48:48;;;;;;;4.60;4.20;;;13.00;89.10;;;;;;5023706;28;20816;-73
2023/04/19 02:51:18;;;;;;;6.20;5.23;;;13.00;89.20;;;;;;5023952;28;20465;-73
2023/04/19 02:53:46;;;;;;;5.33;4.83;;;13.00;89.20;;;;;;5001753;28;20450;-74
2023/04/19 02:56:15;;;;;;;5.90;4.93;;;13.00;89.30;;;;;;5008030;28;20461;-74
2023/04/19 02:58:43;;;;;;;4.93;4.20;;;13.00;89.20;;;;;;5008535;28;20526;-74
2023/04/19 03:01:12;;;;;;;5.03;4.20;;;13.00;89.20;;;;;;5027474;28;20483;-74
2023/04/19 03:03:41;;;;;;;6.13;5.53;;;13.00;89.20;;;;;;5007724;28;20456;-74
2023/04/19 03:06:09;;;;;;;4.97;4.57;;;13.00;88.90;;;;;;5025892;28;20556;-73
2023/04/19 03:08:39;;;;;;;5.63;4.87;;;13.00;89.10;;;;;;4992107;28;21031;-72
2023/04/19 03:11:08;;;;;;;5.47;4.93;;;13.00;89.10;;;;;;5020530;28;20454;-74
2023/04/19 03:13:36;;;;;;;5.90;4.50;;;13.00;89.10;;;;;;5007928;28;20451;-73
2023/04/19 03:16:05;;;;;;;5.07;4.20;;;13.00;89.40;;;;;;5022470;28;20547;-73
2023/04/19 03:18:35;;;;;;;6.07;5.27;;;13.00;89.40;;;;;;5007766;28;20453;-72
2023/04/19 03:21:07;;;;;;;8.60;4.63;;;13.00;89.40;;;;;;5025988;28;21001;-74
2023/04/19 03:23:52;;;;;;;5.20;4.70;;;13.00;89.40;;;;;;5019526;28;20428;-73
2023/04/19 03:26:21;;;;;;;4.50;4.10;;;13.00;89.40;;;;;;5025602;28;20487;-74
2023/04/19 03:28:53;;;;;;;6.60;6.00;;;13.00;89.60;;;;;;5025584;28;20444;-74
2023/04/19 03:31:40;;;;;;;4.70;4.20;;;13.00;89.50;;;;;;5025042;28;20485;-73
2023/04/19 03:34:12;;;;;;;6.23;5.63;;;13.00;89.80;;;;;;5025681;28;20472;-73
2023/04/19 03:36:45;;;;;;;5.13;4.63;;;13.00;89.60;;;;;;5008282;28;20558;-72
2023/04/19 03:39:14;;;;;;;4.70;3.97;;;13.00;89.50;;;;;;5025414;28;20429;-73
2023/04/19 03:41:46;;;;;;;4.73;4.33;;;13.00;89.90;;;;;;5015182;28;20852;-74
2023/04/19 03:44:25;;;;;;;4.20;3.80;;;13.00;90.00;;;;;;5005439;28;20490;-74
2023/04/19 03:46:54;;;;;;;7.13;6.27;;;13.00;90.00;;;;;;5024428;28;20875;-73
2023/04/19 03:49:26;;;;;;;6.43;5.50;;;13.00;89.90;;;;;;5024227;28;21350;-74
2023/04/19 03:52:03;;;;;;;6.70;5.73;;;13.00;89.60;;;;;;5024425;28;20480;-74
2023/04/19 03:54:35;;;;;;;6.70;6.10;;;13.00;89.60;;;;;;5025414;28;20456;-74
2023/04/19 03:57:05;;;;;;;5.40;4.83;;;13.00;89.70;;;;;;5023497;28;20472;-73
2023/04/19 03:59:37;;;;;;;8.33;6.40;;;13.00;89.70;;;;;;5010979;28;20495;-74
2023/04/19 04:02:06;;;;;;;7.57;6.77;;;13.00;89.50;;;;;;5030308;28;20459;-73
2023/04/19 04:04:34;;;;;;;6.17;5.53;;;12.90;89.50;;;;;;4998774;28;20497;-74
2023/04/19 04:07:03;;;;;;;6.60;5.97;;;12.90;89.50;;;;;;5008207;28;20472;-73
2023/04/19 04:09:31;;;;;;;7.13;6.40;;;12.90;89.80;;;;;;5023375;28;20425;-74
2023/04/19 04:12:01;;;;;;;6.23;5.63;;;12.90;89.60;;;;;;5021278;28;20568;-74
2023/04/19 04:14:31;;;;;;;8.43;6.10;;;13.00;89.60;;;;;;5009185;28;20442;-74
2023/04/19 04:17:00;;;;;;;6.80;5.93;;;12.90;89.60;;;;;;5024477;28;20582;-74
2023/04/19 04:19:29;;;;;;;8.73;7.63;;;12.90;89.70;;;;;;5023717;28;20457;-72
2023/04/19 04:21:57;;;;;;;8.63;6.40;;;12.90;89.70;;;;;;5016905;28;20996;-74
2023/04/19 04:24:26;;;;;;;6.80;6.00;;;12.90;89.70;;;;;;5017604;28;20444;-74
2023/04/19 04:27:19;;;;;;;6.97;6.10;;;12.90;89.80;;;;;;5001125;28;20592;-73
2023/04/19 04:29:52;;;;;;;5.83;5.33;;;12.90;89.80;;;;;;5006795;28;20693;-74
2023/04/19 04:32:23;;;;;;;8.07;6.50;;;12.90;89.80;;;;;;5024466;28;20552;-73
2023/04/19 04:34:57;;;;;;;6.70;6.00;;;12.90;89.90;;;;;;4998145;28;21029;-74
2023/04/19 04:37:35;;;;;;;7.60;6.90;;;12.90;89.90;;;;;;5007523;28;20490;-73
2023/04/19 04:40:06;;;;;;;6.53;5.93;;;12.90;89.90;;;;;;5000911;28;20800;-72
2023/04/19 04:42:37;;;;;;;6.13;5.53;;;12.90;90.40;;;;;;5002303;28;20568;-74
2023/04/19 04:45:09;;;;;;;5.30;4.80;;;12.90;90.00;;;;;;5008317;28;20488;-73
2023/04/19 04:47:45;;;;;;;7.13;6.17;;;12.90;90.00;;;;;;5006342;28;21424;-72
2023/04/19 04:50:14;;;;;;;6.47;5.77;;;12.90;90.00;;;;;;5006795;28;20843;-74
2023/04/19 04:52:44;;;;;;;6.97;6.27;;;12.90;90.00;;;;;;5023060;28;20516;-72
2023/04/19 04:55:18;;;;;;;6.50;5.80;;;12.90;90.00;;;;;;5025406;28;20623;-74
2023/04/19 04:57:49;;;;;;;6.47;5.70;;;12.90;90.00;;;;;;5011351;28;21022;-73
2023/04/19 05:00:41;;;;;;;7.20;6.60;;;12.90;90.00;;;;;;5022894;28;21074;-74
2023/04/19 05:03:11;;;;;;;6.00;5.40;;;12.90;90.00;;;;;;5020941;28;20444;-73
2023/04/19 05:05:46;;;;;;;7.17;6.40;;;12.90;90.00;;;;;;5024181;28;20441;-73
2023/04/19 05:08:14;;;;;;;6.70;5.87;;;12.90;90.00;;;;;;4992076;28;20453;-73
2023/04/19 05:10:44;;;;;;;6.47;5.63;;;12.90;90.00;;;;;;5022012;28;20892;-75
2023/04/19 05:13:15;;;;;;;5.90;5.13;;;12.90;90.00;;;;;;4998762;28;20449;-73
2023/04/19 05:15:43;;;;;;;5.53;5.03;;;12.90;90.00;;;;;;5002318;28;20428;-73
2023/04/19 05:18:12;;;;;;;5.60;4.83;;;12.90;90.00;;;;;;5023230;28;20487;-74
2023/04/19 05:20:41;;;;;;;5.20;4.70;;;12.90;90.00;;;;;;5006178;28;20492;-74
2023/04/19 05:23:18;;;;;;;6.73;5.10;;;12.90;90.10;;;;;;5023115;28;20523;-74
2023/04/19 05:25:46;;;;;;;6.17;5.53;;;12.90;90.10;;;;;;4999412;28;20611;-73
2023/04/19 05:28:16;;;;;;;5.40;4.57;;;12.90;90.10;;;;;;5022509;28;20452;-74
2023/04/19 05:31:23;;;;;;;5.27;4.77;;;12.90;90.10;;;;;;4994402;28;20476;-65
2023/04/19 05:34:17;;;;;;;4.87;4.47;;;12.90;90.10;;;;;;4983992;28;20927;-66
2023/04/19 05:36:49;;;;;;;5.63;5.10;;;12.90;90.10;;;;;;5022221;28;20487;-65
2023/04/19 05:39:18;;;;;;;5.60;4.37;;;12.90;90.20;;;;;;5019193;28;20434;-67
2023/04/19 05:41:46;;;;;;;5.30;4.80;;;12.90;90.20;;;;;;5020246;28;20855;-66
2023/04/19 05:44:16;;;;;;;5.33;4.83;;;12.90;90.20;;;;;;5000296;28;20440;-66
2023/04/19 05:46:45;;;;;;;4.83;4.43;;;12.90;90.20;;;;;;5021768;28;20545;-66
2023/04/19 05:49:18;;;;;;;5.83;5.33;;;12.90;90.20;;;;;;5018750;28;20972;-65
2023/04/19 05:52:16;;;;;;;4.80;4.33;;;12.90;90.20;;;;;;5017510;28;20449;-65
2023/04/19 05:54:49;;;;;;;5.97;4.70;;;12.90;90.20;;;;;;5005618;28;20457;-66
2023/04/19 05:57:18;;;;;;;5.90;5.30;;;12.90;90.20;;;;;;5013411;28;20473;-66
2023/04/19 05:59:48;;;;;;;6.23;4.77;;;12.90;90.20;;;;;;4997372;28;20978;-66
2023/04/19 06:02:20;;;;;;;5.53;4.60;;;12.90;90.30;;;;;;5016871;28;20544;-64
2023/04/19 06:04:49;;;;;;;4.90;4.40;;;12.90;90.30;;;;;;5006041;28;20451;-66
2023/04/19 06:07:19;;;;;;;4.90;4.50;;;12.90;90.30;;;;;;5013890;28;20450;-65
2023/04/19 06:10:01;;;;;;;5.30;4.47;;;12.90;90.30;;;;;;5009624;28;20476;-66
2023/04/19 06:12:30;;;;;;;6.00;4.90;;;12.90;90.30;;;;;;5021818;28;20587;-67
2023/04/19 06:15:00;;;;;;;5.17;4.77;;;12.90;90.30;;;;;;5021061;28;20954;-66
2023/04/19 06:17:30;;;;;;;5.23;4.73;;;12.90;90.30;;;;;;5003277;28;20504;-74
2023/04/19 06:19:59;;;;;;;4.77;4.33;;;12.90;90.30;;;;;;5015117;28;20444;-74
2023/04/19 06:22:27;;;;;;;5.43;4.37;;;12.90;90.30;;;;;;5003681;28;20523;-74
2023/04/19 06:24:55;;;;;;;4.87;4.43;;;12.90;90.30;;;;;;5022097;28;21010;-74
2023/04/19 06:27:24;;;;;;;4.67;4.10;;;12.90;90.30;;;;;;5005338;28;20463;-73
2023/04/19 06:29:53;;;;;;;4.97;4.50;;;12.90;90.30;;;;;;5022422;28;20452;-74
2023/04/19 06:32:24;;;;;;;4.90;4.50;;;12.90;90.30;;;;;;5021699;28;20482;-74
2023/04/19 06:34:53;;;;;;;4.73;4.23;;;12.90;90.30;;;;;;5006363;28;20431;-74
2023/04/19 06:37:21;;;;;;;5.10;4.60;;;12.90;90.30;;;;;;5003132;28;20480;-74
2023/04/19 06:39:50;;;;;;;6.63;5.60;;;12.90;90.40;;;;;;5022246;28;20450;-74
2023/04/19 06:42:19;;;;;;;7.63;6.87;;;12.90;90.50;;;;;;5020759;28;20558;-74
2023/04/19 06:44:48;;;;;;;6.00;5.40;;;12.90;90.50;;;;;;5017688;28;20455;-74
2023/04/19 06:47:16;;;;;;;6.60;5.70;;;12.90;90.40;;;;;;5021763;28;20552;-72
2023/04/19 06:49:46;;;;;;;5.00;4.50;;;12.90;90.40;;;;;;5020667;28;20541;-73
2023/04/19 06:52:14;;;;;;;6.30;4.90;;;12.90;90.40;;;;;;4998865;28;20501;-72
2023/04/19 06:54:46;;;;;;;6.70;4.87;;;12.90;90.40;;;;;;5018275;28;20475;-72
2023/04/19 06:57:15;;;;;;;5.60;5.10;;;12.90;90.30;;;;;;5021361;28;20488;-73
2023/04/19 06:59:44;;;;;;;7.13;5.20;;;12.90;90.30;;;;;;5018379;28;20468;-74
2023/04/19 07:02:12;;;;;;;5.97;4.80;;;12.90;90.20;;;;;;5021385;28;20465;-74
2023/04/19 07:04:41;;;;;;;6.40;5.30;;;12.90;90.20;;;;;;5004749;28;20445;-73
2023/04/19 07:07:11;;;;;;;6.40;5.03;;;12.90;90.10;;;;;;5011312;28;20480;-72
2023/04/19 07:09:40;;;;;;;5.90;5.40;;;12.90;90.60;;;;;;5017886;28;20455;-73
2023/04/19 07:12:08;;;;;;;8.30;4.47;;;12.90;90.10;;;;;;5004862;28;20461;-73
2023/04/19 07:14:36;;;;;;;5.40;4.90;;;12.90;90.10;;;;;;5012588;28;20532;-73
2023/04/19 07:17:05;;;;;;;8.53;5.07;;;12.90;90.10;;;;;;5018950;28;20573;-73
2023/04/19 07:19:35;;;;;;;4.67;4.17;;;12.90;90.10;;;;;;4999637;28;20476;-74
2023/04/19 07:22:05;;;;;;;7.50;4.70;;;12.90;90.10;;;;;;5029305;28;20562;-73
2023/04/19 07:24:34;;;;;;;6.00;4.53;;;12.90;90.10;;;;;;5022051;28;20469;-74
2023/04/19 07:27:03;;;;;;;4.87;4.43;;;12.90;90.20;;;;;;5017937;28;20473;-74
2023/04/19 07:29:31;;;;;;;5.77;4.37;;;12.90;90.10;;;;;;5021899;28;20459;-73
2023/04/19 07:32:00;;;;;;;4.37;3.97;;;12.90;90.00;;;;;;5023285;28;20452;-74
2023/04/19 07:34:29;;;;;;;4.80;3.97;;;12.90;90.10;;;;;;5002217;28;20877;-74
2023/04/19 07:36:57;;;;;;;3.73;3.40;;;12.90;90.10;;;;;;5020873;28;20884;-72
2023/04/19 07:39:26;;;;;;;5.40;4.90;;;12.90;90.10;;;;;;5021237;28;20571;-74
2023/04/19 07:41:55;;;;;;;4.27;3.87;;;12.90;90.10;;;;;;5004988;28;20575;-73
2023/04/19 07:44:24;;;;;;;4.17;3.87;;;12.90;90.10;;;;;;4989863;28;20456;-73
2023/04/19 07:46:53;;;;;;;5.10;3.80;;;12.90;90.00;;;;;;5016064;28;20472;-73
2023/04/19 07:49:21;;;;;;;4.67;4.20;;;12.90;90.10;;;;;;5023829;28;20510;-73
2023/04/19 07:51:50;;;;;;;5.90;4.93;;;12.90;90.10;;;;;;5007995;28;20849;-72
2023/04/19 07:54:20;;;;;;;4.13;3.83;;;12.90;89.70;;;;;;5008903;28;20436;-72
2023/04/19 07:56:48;;;;;;;5.03;3.40;;;12.90;90.00;;;;;;5023384;28;20467;-74
2023/04/19 07:59:18;;;;;;;4.07;3.77;;;12.90;90.00;;;;;;5008835;28;20485;-72
2023/04/19 08:01:46;;;;;;;4.17;3.77;;;12.90;89.80;;;;;;5003187;28;20479;-74
2023/04/19 08:04:16;;;;;;;3.67;3.30;;;12.90;89.70;;;;;;5009750;28;20464;-73
2023/04/19 08:06:45;;;;;;;3.87;3.47;;;12.90;89.70;;;;;;5023740;28;20476;-73
2023/04/19 08:09:14;;;;;;;4.20;3.40;;;12.90;89.90;;;;;;5025111;28;20521;-74
2023/04/19 08:11:43;;;;;;;4.30;3.30;;;12.90;89.90;;;;;;5008395;28;20481;-74
2023/04/19 08:14:11;;;;;;;3.77;3.43;;;12.90;90.00;;;;;;5008317;28;20467;-74
2023/04/19 08:16:59;;;;;;;3.83;3.43;;;12.90;90.00;;;;;;5024497;28;20540;-74
2023/04/19 08:19:31;;;;;;;3.70;3.27;;;13.00;90.40;;;;;;5019534;28;20945;-74
2023/04/19 08:21:59;;;;;;;3.37;3.03;;;13.00;90.00;;;;;;5005989;28;20476;-73
2023/04/19 08:24:30;;;;;;;3.50;3.20;;;13.00;89.80;;;;;;5024549;28;20535;-74
2023/04/19 08:26:58;;;;;;;4.10;3.70;;;13.00;89.70;;;;;;5007988;28;20481;-74
2023/04/19 08:29:27;;;;;;;3.13;2.83;;;13.00;89.70;;;;;;5016298;28;20480;-73
2023/04/19 08:31:56;;;;;;;4.23;3.53;;;13.00;89.50;;;;;;5005254;28;20538;-74
2023/04/19 08:34:26;;;;;;;3.57;3.20;;;13.00;89.40;;;;;;5022711;28;20496;-73
2023/04/19 08:36:54;;;;;;;4.60;3.50;;;13.00;89.40;;;;;;5023832;28;20474;-74
2023/04/19 08:39:31;;;;;;;3.10;2.80;;;13.00;89.50;;;;;;4999268;28;20469;-74
2023/04/19 08:42:05;;;;;;;4.33;3.57;;;13.00;89.50;;;;;;5020968;28;20487;-74
2023/04/19 08:44:52;;;;;;;4.43;3.63;;;13.10;89.50;;;;;;4996636;28;20496;-75
2023/04/19 08:47:41;;;;;;;3.50;3.20;;;13.10;89.50;;;;;;5011584;28;20580;-74
2023/04/19 08:50:29;;;;;;;3.43;3.13;;;13.10;89.60;;;;;;5003543;28;20473;-67
2023/04/19 08:53:08;;;;;;;3.57;3.27;;;13.10;89.50;;;;;;5007011;28;20897;-66
2023/04/19 08:55:41;;;;;;;3.50;3.20;;;13.10;89.50;;;;;;5030242;28;20967;-66
2023/04/19 08:58:31;;;;;;;3.63;3.33;;;13.10;89.30;;;;;;5007249;28;21080;-67
2023/04/19 09:01:20;;;;;;;3.70;2.90;;;13.10;89.30;;;;;;5011589;28;20471;-66
2023/04/19 09:03:51;;;;;;;4.20;3.50;;;13.10;89.40;;;;;;5021946;28;20446;-66
2023/04/19 09:06:41;;;;;;;3.20;2.90;;;13.10;89.10;;;;;;5006629;28;20477;-74
2023/04/19 09:09:18;;;;;;;3.57;2.80;;;13.10;89.10;;;;;;5001344;28;20921;-74
2023/04/19 09:11:49;;;;;;;3.63;3.33;;;13.10;89.10;;;;;;5007755;28;20449;-73
2023/04/19 09:14:20;;;;;;;5.77;4.40;;;13.10;89.10;;;;;;5023033;28;20499;-73
2023/04/19 09:16:50;;;;;;;5.03;3.73;;;13.30;88.40;;;;;;5009253;28;20559;-73
2023/04/19 09:19:19;;;;;;;4.73;4.33;;;13.30;87.00;;;;;;5022949;28;20469;-74
2023/04/19 09:21:54;;;;;;;5.00;4.00;;;13.30;86.80;;;;;;5014838;28;20453;-74
2023/04/19 09:24:38;;;;;;;5.50;3.70;;;13.30;86.90;;;;;;5007552;28;20464;-73
2023/04/19 09:27:10;;;;;;;8.97;6.20;;;13.30;87.30;;;;;;5004159;28;20483;-74
2023/04/19 09:29:39;;;;;;;14.43;6.77;;;13.30;83.70;;;;;;5021438;28;20459;-73
2023/04/19 09:32:08;;;;;;;13.63;7.27;;;13.30;82.50;;;;;;5005809;28;20839;-74
2023/04/19 09:34:51;;;;;;;7.30;6.33;;;13.40;81.60;;;;;;5006255;28;20440;-73
2023/04/19 09:37:21;;;;;;;10.00;6.07;;;13.40;81.00;;;;;;5001946;28;20468;-72
2023/04/19 09:40:22;;;;;;;9.13;6.20;;;13.30;82.10;;;;;;5022721;28;20681;-75
2023/04/19 09:42:50;;;;;;;7.73;5.80;;;13.40;81.40;;;;;;5017746;28;20469;-73
2023/04/19 09:45:22;;;;;;;10.50;6.07;;;13.50;80.40;;;;;;5003981;28;20461;-74
2023/04/19 09:48:03;;;;;;;10.40;6.97;;;13.60;79.60;;;;;;5014422;28;20850;-74
2023/04/19 09:50:32;;;;;;;7.20;5.73;;;13.60;78.40;;;;;;4992357;28;20975;-74
2023/04/19 09:53:12;;;;;;;9.40;7.93;;;13.60;78.40;;;;;;5021405;28;20488;-73
2023/04/19 09:55:41;;;;;;;11.57;6.80;;;13.70;66.50;;;;;;5016813;28;20442;-73
2023/04/19 09:58:29;;;;;;;12.80;7.07;;;13.70;72.60;;;;;;5000866;28;20477;-74
2023/04/19 10:01:18;;;;;;;9.20;6.27;;;13.70;73.40;;;;;;5023219;28;20537;-73
2023/04/19 10:03:49;;;;;;;12.80;6.80;;;13.70;73.10;;;;;;5005602;28;20457;-73
2023/04/19 10:06:20;;;;;;;8.20;5.60;;;13.70;72.20;;;;;;5012208;28;20497;-72
2023/04/19 10:08:55;;;;;;;15.87;6.93;;;13.70;73.20;;;;;;5014211;28;20528;-72
2023/04/19 10:11:29;;;;;;;9.63;6.87;;;13.80;72.20;;;;;;5020444;28;20488;-72
2023/04/19 10:14:01;;;;;;;11.73;6.50;;;13.80;70.80;;;;;;5020612;28;20449;-72
2023/04/19 10:16:31;;;;;;;18.87;6.23;;;13.80;70.00;;;;;;5006695;28;20908;-74
2023/04/19 10:19:01;;;;;;;13.40;6.17;;;13.90;68.60;;;;;;4996213;28;20553;-73
2023/04/19 10:21:29;;;;;;;7.70;5.17;;;13.80;67.80;;;;;;5020992;28;20591;-73
2023/04/19 10:24:01;;;;;;;5.50;4.90;;;13.90;68.40;;;;;;5022120;28;20950;-73
2023/04/19 10:26:30;;;;;;;8.53;6.13;;;13.90;68.20;;;;;;5003344;28;20429;-73
2023/04/19 10:28:58;;;;;;;10.23;5.10;;;13.90;67.80;;;;;;5021838;28;20442;-74
2023/04/19 10:31:27;;;;;;;9.43;6.20;;;13.90;66.20;;;;;;5019233;28;20477;-73
2023/04/19 10:33:56;;;;;;;7.63;5.10;;;13.90;65.30;;;;;;5021147;28;20859;-73
2023/04/19 10:36:28;;;;;;;6.60;5.20;;;13.90;64.70;;;;;;5005549;28;20444;-73
2023/04/19 10:38:56;;;;;;;7.43;5.30;;;13.90;65.00;;;;;;4998722;28;20461;-72
2023/04/19 10:42:00;;;;;;;7.60;5.23;;;13.90;63.50;;;;;;5021218;28;20519;-73
2023/04/19 10:44:29;;;;;;;6.67;4.77;;;14.00;63.40;;;;;;5019184;28;20455;-72
2023/04/19 10:46:59;;;;;;;10.63;5.00;;;14.00;62.80;;;;;;5014738;28;20461;-73
2023/04/19 10:49:28;;;;;;;10.57;5.07;;;14.00;63.30;;;;;;5005645;28;20499;-73
2023/04/19 10:51:59;;;;;;;8.07;5.47;;;14.00;63.40;;;;;;5012678;28;20588;-72
2023/04/19 10:54:31;;;;;;;13.27;6.57;;;14.00;64.10;;;;;;5005566;28;20445;-73
2023/04/19 10:57:03;;;;;;;9.00;5.80;;;14.00;62.80;;;;;;5006085;28;20946;-74
2023/04/19 10:59:36;;;;;;;14.43;5.73;;;14.00;64.00;;;;;;5016240;28;20469;-72
2023/04/19 11:02:26;;;;;;;8.00;4.70;;;14.00;63.80;;;;;;5019394;28;20523;-74
2023/04/19 11:05:01;;;;;;;13.73;6.90;;;13.90;64.10;;;;;;5014990;28;20456;-72
2023/04/19 11:07:37;;;;;;;15.90;6.40;;;13.80;64.90;;;;;;5005980;28;20588;-72
2023/04/19 11:10:07;;;;;;;15.37;6.10;;;13.80;66.50;;;;;;5016241;28;20989;-73
2023/04/19 11:12:37;;;;;;;18.33;5.90;;;13.70;67.20;;;;;;5021340;28;20563;-73
2023/04/19 11:15:08;;;;;;;17.90;5.97;;;13.70;68.40;;;;;;5017247;28;20513;-73
2023/04/19 11:17:38;;;;;;;13.00;6.00;;;13.70;70.00;;;;;;5001467;28;20457;-73
2023/04/19 11:20:09;;;;;;;13.10;5.60;;;13.60;70.80;;;;;;5003696;28;20522;-72
2023/04/19 11:22:40;;;;;;;11.90;5.60;;;13.60;70.50;;;;;;5008703;28;20531;-73
2023/04/19 11:25:10;;;;;;;8.07;4.53;;;13.60;70.00;;;;;;5010036;28;20885;-72
2023/04/19 11:27:41;;;;;;;12.83;5.57;;;13.60;70.10;;;;;;5019117;28;20480;-73
2023/04/19 11:30:12;;;;;;;8.37;5.03;;;13.60;71.00;;;;;;5003334;28;21039;-73
2023/04/19 11:32:47;;;;;;;10.73;4.60;;;13.60;71.50;;;;;;5016793;28;20556;-73
2023/04/19 11:35:19;;;;;;;8.57;5.77;;;13.60;71.10;;;;;;5015224;28;20532;-73
2023/04/19 11:37:48;;;;;;;9.10;5.07;;;13.60;70.10;;;;;;5024405;28;20480;-66
2023/04/19 11:40:18;;;;;;;9.60;4.70;;;13.60;70.00;;;;;;5024736;28;20611;-64
2023/04/19 11:42:54;;;;;;;15.83;7.47;;;13.70;68.80;;;;;;5009534;28;20480;-66
2023/04/19 11:45:28;;;;;;;7.40;4.40;;;13.70;66.70;;;;;;5009403;28;20456;-65
2023/04/19 11:48:00;;;;;;;12.23;4.77;;;13.80;65.30;;;;;;5014145;28;20547;-64
2023/04/19 11:50:37;;;;;;;9.90;4.93;;;13.80;64.80;;;;;;5021661;28;20802;-64
2023/04/19 11:53:17;;;;;;;7.30;4.60;;;13.80;64.60;;;;;;5006808;28;20468;-66
2023/04/19 11:55:47;;;;;;;6.70;4.10;;;13.90;62.80;;;;;;5016507;28;20585;-65
2023/04/19 11:58:32;;;;;;;10.67;4.97;;;14.00;61.60;;;;;;5024539;28;20481;-64
2023/04/19 12:01:05;;;;;;;6.63;4.77;;;14.00;61.30;;;;;;5001837;28;20542;-65
2023/04/19 12:03:34;;;;;;;7.23;5.10;;;14.10;59.70;;;;;;5000907;28;20450;-66
2023/04/19 12:06:07;;;;;;;7.90;4.83;;;14.00;58.20;;;;;;5024494;28;20557;-64
2023/04/19 12:08:37;;;;;;;9.97;3.70;;;14.10;58.30;;;;;;5007249;28;20849;-66
2023/04/19 12:11:06;;;;;;;11.10;4.40;;;14.10;58.30;;;;;;5024287;28;20465;-64
2023/04/19 12:13:36;;;;;;;7.57;3.90;;;14.10;58.30;;;;;;5022665;28;20457;-64
2023/04/19 12:16:05;;;;;;;9.77;4.40;;;14.10;56.40;;;;;;5022946;28;20449;-66
2023/04/19 12:18:45;;;;;;;10.63;3.43;;;14.10;55.90;;;;;;5022243;28;20434;-65
2023/04/19 12:21:26;;;;;;;6.23;4.17;;;14.10;55.60;;;;;;5024446;28;20477;-64
2023/04/19 12:23:56;;;;;;;11.43;4.17;;;14.10;56.10;;;;;;5001466;28;20442;-66
2023/04/19 12:26:25;;;;;;;19.53;5.00;;;14.10;55.70;;;;;;5008809;28;20497;-66
2023/04/19 12:28:56;;;;;;;5.80;2.83;;;14.20;56.50;;;;;;5012299;28;20453;-65
2023/04/19 12:31:24;;;;;;;8.35;3.70;;;14.20;55.80;;;;;;5023221;28;20447;-65
2023/04/19 12:33:53;;;;;;;7.63;3.93;;;14.20;55.90;;;;;;5005194;28;20625;-66
2023/04/19 12:36:22;;;;;;;4.87;3.17;;;14.20;53.90;;;;;;5023383;28;20468;-65
2023/04/19 12:38:50;;;;;;;5.80;3.10;;;14.20;53.00;;;;;;5006634;28;20961;-74
2023/04/19 12:41:19;;;;;;;4.43;3.07;;;14.20;52.10;;;;;;5022305;28;20507;-73
2023/04/19 12:43:48;;;;;;;5.00;2.90;;;14.20;49.50;;;;;;5007758;28;20441;-73
2023/04/19 12:46:18;;;;;;;4.83;3.10;;;14.20;51.30;;;;;;5022201;28;20981;-74
2023/04/19 12:48:46;;;;;;;7.00;2.67;;;14.10;51.00;;;;;;5008166;28;20441;-73
2023/04/19 12:51:14;;;;;;;6.87;3.50;;;14.20;52.90;;;;;;5030298;28;20469;-74
2023/04/19 12:53:47;;;;;;;4.60;3.20;;;14.20;51.70;;;;;;5024180;28;20429;-74
2023/04/19 12:56:16;;;;;;;7.57;3.50;;;14.20;51.60;;;;;;5000995;28;20469;-75
2023/04/19 12:58:44;;;;;;;4.80;2.80;;;14.20;52.00;;;;;;5004892;28;21004;-74
2023/04/19 13:01:13;;;;;;;7.20;3.27;;;14.30;50.30;;;;;;5006811;28;20870;-72
2023/04/19 13:03:42;;;;;;;5.40;3.30;;;14.30;49.40;;;;;;5021960;28;20815;-74
2023/04/19 13:06:13;;;;;;;10.00;3.50;;;14.30;50.40;;;;;;5023928;28;20456;-74
2023/04/19 13:08:41;;;;;;;10.07;3.33;;;14.30;52.70;;;;;;5004293;28;20445;-74